createdAt,value
2022-11-07T00:01:40.535Z,27.62
2022-11-07T00:04:08.173Z,27.70
2022-11-07T00:06:37.559Z,26.67
2022-11-07T00:09:05.338Z,26.92
2022-11-07T00:11:32.897Z,28.05
2022-11-07T00:14:00.215Z,26.83
2022-11-07T00:16:28.866Z,26.08
2022-11-07T00:18:56.551Z,28.55
2022-11-07T00:21:23.925Z,30.62
2022-11-07T00:23:51.241Z,27.00
2022-11-07T00:26:18.923Z,25.80
2022-11-07T00:28:46.269Z,24.50
2022-11-07T00:31:15.014Z,25.08
2022-11-07T00:33:43.595Z,24.65
2022-11-07T00:36:20.582Z,24.77
2022-11-07T00:38:48.425Z,25.95
2022-11-07T00:41:15.768Z,22.33
2022-11-07T00:43:43.189Z,23.48
2022-11-07T00:46:12.042Z,29.15
2022-11-07T00:48:39.684Z,27.62
2022-11-07T00:51:09.753Z,24.60
2022-11-07T00:53:37.624Z,29.27
2022-11-07T00:56:07.332Z,24.75
2022-11-07T00:58:34.787Z,27.45
2022-11-07T01:01:10.395Z,24.95
2022-11-07T01:03:56.966Z,24.87
2022-11-07T01:06:26.595Z,22.65
2022-11-07T01:08:54.677Z,23.52
2022-11-07T01:11:22.837Z,22.05
2022-11-07T01:13:50.436Z,25.90
2022-11-07T01:16:17.765Z,21.62
2022-11-07T01:18:45.073Z,21.25
2022-11-07T01:21:16.516Z,21.87
2022-11-07T01:23:44.212Z,24.02
2022-11-07T01:26:12.755Z,27.45
2022-11-07T01:28:40.406Z,21.60
2022-11-07T01:31:10.095Z,20.27
2022-11-07T01:33:37.779Z,21.35
2022-11-07T01:36:11.301Z,24.83
2022-11-07T01:38:40.175Z,23.52
2022-11-07T01:41:22.648Z,23.08
2022-11-07T01:44:08.085Z,23.17
2022-11-07T01:46:37.792Z,22.30
2022-11-07T01:49:23.701Z,22.30
2022-11-07T01:52:01.013Z,18.45
2022-11-07T01:54:32.280Z,19.00
2022-11-07T01:57:04.980Z,21.48
2022-11-07T01:59:33.575Z,19.42
2022-11-07T02:02:01.322Z,22.65
2022-11-07T02:04:29.936Z,19.35
2022-11-07T02:07:05.955Z,18.73
2022-11-07T02:09:33.650Z,19.92
2022-11-07T02:12:01.312Z,20.77
2022-11-07T02:14:29.594Z,18.45
2022-11-07T02:16:57.221Z,16.50
2022-11-07T02:19:40.775Z,17.42
2022-11-07T02:22:49.842Z,20.98
2022-11-07T02:25:18.499Z,22.52
2022-11-07T02:27:48.182Z,20.15
2022-11-07T02:30:21.768Z,19.92
2022-11-07T02:32:50.484Z,19.60
2022-11-07T02:35:39.631Z,17.48
2022-11-07T02:38:31.152Z,20.92
2022-11-07T02:41:01.409Z,18.27
2022-11-07T02:43:30.418Z,18.05
2022-11-07T02:45:59.395Z,18.77
2022-11-07T02:48:31.416Z,20.05
2022-11-07T02:50:59.357Z,16.55
2022-11-07T02:53:26.673Z,16.73
2022-11-07T02:55:53.994Z,17.77
2022-11-07T02:58:21.565Z,16.98
2022-11-07T03:00:48.897Z,18.48
2022-11-07T03:03:16.690Z,17.92
2022-11-07T03:05:44.549Z,15.05
2022-11-07T03:08:11.860Z,17.15
2022-11-07T03:10:39.182Z,20.15
2022-11-07T03:13:06.778Z,16.00
2022-11-07T03:15:34.076Z,17.73
2022-11-07T03:18:01.404Z,15.90
2022-11-07T03:20:28.978Z,18.85
2022-11-07T03:22:56.292Z,23.02
2022-11-07T03:25:23.642Z,17.85
2022-11-07T03:27:51.561Z,20.33
2022-11-07T03:30:19.138Z,20.05
2022-11-07T03:32:46.453Z,21.27
2022-11-07T03:35:14.027Z,22.30
2022-11-07T03:37:41.345Z,21.30
2022-11-07T03:40:08.945Z,22.80
2022-11-07T03:42:40.557Z,22.00
2022-11-07T03:45:08.869Z,21.40
2022-11-07T03:47:37.502Z,28.92
2022-11-07T03:50:06.088Z,21.25
2022-11-07T03:52:33.410Z,22.83
2022-11-07T03:55:00.711Z,20.48
2022-11-07T03:57:28.290Z,24.17
2022-11-07T03:59:55.646Z,23.60
2022-11-07T04:02:26.039Z,19.98
2022-11-07T04:04:53.823Z,23.02
2022-11-07T04:07:21.271Z,20.83
2022-11-07T04:09:48.585Z,21.48
2022-11-07T04:12:34.513Z,21.12
2022-11-07T04:15:20.379Z,20.98
2022-11-07T04:17:47.972Z,21.73
2022-11-07T04:20:15.309Z,20.33
2022-11-07T04:22:42.619Z,19.12
2022-11-07T04:25:10.324Z,18.80
2022-11-07T04:27:43.435Z,20.70
2022-11-07T04:30:19.704Z,23.25
2022-11-07T04:32:54.928Z,22.87
2022-11-07T04:35:25.419Z,22.42
2022-11-07T04:37:52.928Z,22.48
2022-11-07T04:40:20.777Z,20.10
2022-11-07T04:42:48.879Z,22.77
2022-11-07T04:45:16.768Z,21.45
2022-11-07T04:47:44.295Z,17.33
2022-11-07T04:50:14.176Z,17.23
2022-11-07T04:52:41.767Z,16.60
2022-11-07T04:55:10.820Z,15.60
2022-11-07T04:57:38.411Z,19.37
2022-11-07T05:00:06.365Z,17.35
2022-11-07T05:02:34.223Z,16.02
2022-11-07T05:05:01.832Z,17.95
2022-11-07T05:07:29.159Z,15.30
2022-11-07T05:09:56.470Z,15.20
2022-11-07T05:12:24.036Z,15.38
2022-11-07T05:14:51.353Z,13.75
2022-11-07T05:17:18.855Z,13.80
2022-11-07T05:19:47.820Z,14.02
2022-11-07T05:22:34.119Z,15.98
2022-11-07T05:25:02.028Z,15.07
2022-11-07T05:27:30.591Z,15.88
2022-11-07T05:29:57.898Z,17.00
2022-11-07T05:32:25.457Z,14.80
2022-11-07T05:34:52.744Z,15.35
2022-11-07T05:37:20.068Z,14.60
2022-11-07T05:39:52.384Z,15.23
2022-11-07T05:42:22.100Z,15.95
2022-11-07T05:44:49.755Z,16.12
2022-11-07T05:47:17.073Z,17.48
2022-11-07T05:49:44.385Z,18.33
2022-11-07T05:52:11.958Z,18.80
2022-11-07T05:54:39.314Z,16.85
2022-11-07T05:57:06.629Z,22.92
2022-11-07T05:59:34.191Z,23.27
2022-11-07T06:02:01.607Z,19.27
2022-11-07T06:04:29.271Z,19.87
2022-11-07T06:06:56.593Z,21.35
2022-11-07T06:09:23.909Z,20.70
2022-11-07T06:11:51.618Z,18.87
2022-11-07T06:14:18.948Z,22.30
2022-11-07T06:16:46.253Z,19.60
2022-11-07T06:19:13.847Z,18.65
2022-11-07T06:21:41.325Z,21.42
2022-11-07T06:24:15.053Z,18.58
2022-11-07T06:26:43.254Z,18.95
2022-11-07T06:29:10.991Z,21.10
2022-11-07T06:31:38.386Z,21.40
2022-11-07T06:34:06.186Z,20.75
2022-11-07T06:36:33.527Z,20.88
2022-11-07T06:39:00.841Z,17.73
2022-11-07T06:41:28.553Z,22.73
2022-11-07T06:43:55.916Z,21.42
2022-11-07T06:46:23.351Z,19.35
2022-11-07T06:48:51.312Z,21.52
2022-11-07T06:51:18.631Z,23.80
2022-11-07T06:53:45.968Z,21.25
2022-11-07T06:56:15.260Z,23.77
2022-11-07T06:58:42.610Z,27.05
2022-11-07T07:01:13.527Z,21.58
2022-11-07T07:03:42.332Z,22.15
2022-11-07T07:06:14.670Z,23.50
2022-11-07T07:08:42.942Z,24.23
2022-11-07T07:11:12.600Z,22.70
2022-11-07T07:13:40.074Z,22.00
2022-11-07T07:16:08.404Z,20.42
2022-11-07T07:18:35.788Z,21.10
2022-11-07T07:21:11.379Z,22.27
2022-11-07T07:23:39.293Z,22.85
2022-11-07T07:26:09.329Z,27.27
2022-11-07T07:28:37.461Z,20.50
2022-11-07T07:31:13.989Z,22.42
2022-11-07T07:33:45.889Z,23.15
2022-11-07T07:36:19.283Z,21.55
2022-11-07T07:38:49.153Z,18.37
2022-11-07T07:41:17.413Z,22.08
2022-11-07T07:43:44.812Z,18.70
2022-11-07T07:46:17.983Z,20.77
2022-11-07T07:48:45.552Z,22.15
2022-11-07T07:51:12.937Z,17.62
2022-11-07T07:53:40.387Z,19.62
2022-11-07T07:56:08.311Z,18.52
2022-11-07T07:58:35.644Z,18.17
2022-11-07T08:01:10.084Z,19.92
2022-11-07T08:06:24.969Z,19.17
2022-11-07T08:08:52.710Z,21.20
2022-11-07T08:11:20.072Z,21.20
2022-11-07T08:13:47.410Z,18.20
2022-11-07T08:16:15.022Z,17.08
2022-11-07T08:18:42.368Z,20.15
2022-11-07T08:21:09.693Z,19.33
2022-11-07T08:23:37.329Z,17.62
2022-11-07T08:26:05.237Z,19.15
2022-11-07T08:28:34.266Z,19.83
2022-11-07T08:31:05.272Z,19.35
2022-11-07T08:33:33.194Z,17.80
2022-11-07T08:36:01.890Z,19.67
2022-11-07T08:38:30.648Z,17.60
2022-11-07T08:40:58.693Z,18.17
2022-11-07T08:43:26.427Z,17.40
2022-11-07T08:45:55.011Z,17.85
2022-11-07T08:48:22.909Z,16.50
2022-11-07T08:50:54.765Z,17.42
2022-11-07T08:53:23.046Z,16.33
2022-11-07T08:55:50.546Z,18.73
2022-11-07T08:58:18.948Z,19.08
2022-11-07T09:00:46.628Z,15.73
2022-11-07T09:06:02.378Z,17.87
2022-11-07T09:08:29.750Z,16.33
2022-11-07T09:11:01.765Z,18.52
2022-11-07T09:13:33.412Z,15.45
2022-11-07T09:16:02.578Z,15.25
2022-11-07T09:18:30.829Z,16.83
2022-11-07T09:20:58.723Z,16.62
2022-11-07T09:23:26.564Z,14.80
2022-11-07T09:25:54.186Z,17.55
2022-11-07T09:28:21.560Z,17.50
2022-11-07T09:30:56.369Z,14.63
2022-11-07T09:33:24.238Z,16.17
2022-11-07T09:35:51.628Z,17.37
2022-11-07T09:38:19.369Z,15.82
2022-11-07T09:41:06.115Z,12.65
2022-11-07T09:44:13.362Z,17.85
2022-11-07T09:46:58.226Z,16.42
2022-11-07T09:49:34.607Z,17.42
2022-11-07T09:52:31.768Z,15.38
2022-11-07T09:55:12.860Z,19.20
2022-11-07T09:57:40.624Z,15.65
2022-11-07T10:00:18.262Z,15.32
2022-11-07T10:02:51.016Z,15.80
2022-11-07T10:05:29.995Z,36.95
2022-11-07T10:08:02.442Z,20.35
2022-11-07T10:10:51.273Z,16.48
2022-11-07T10:13:54.327Z,19.35
2022-11-07T10:16:33.251Z,14.52
2022-11-07T10:19:09.396Z,15.55
2022-11-07T10:21:44.787Z,17.55
2022-11-07T10:24:18.373Z,16.70
2022-11-07T10:26:46.070Z,19.37
2022-11-07T10:29:15.827Z,16.20
2022-11-07T10:32:15.566Z,17.98
2022-11-07T10:34:54.146Z,30.40
2022-11-07T10:37:22.187Z,46.03
2022-11-07T10:39:49.777Z,22.45
2022-11-07T10:42:20.766Z,15.95
2022-11-07T10:44:48.592Z,16.85
2022-11-07T10:47:24.165Z,14.20
2022-11-07T10:49:58.729Z,21.75
2022-11-07T10:52:28.262Z,41.53
2022-11-07T10:55:06.578Z,23.55
2022-11-07T10:57:35.564Z,18.73
2022-11-07T11:00:05.492Z,15.98
2022-11-07T11:02:45.752Z,21.58
2022-11-07T11:05:33.193Z,18.15
2022-11-07T11:08:16.039Z,17.40
2022-11-07T11:10:43.923Z,70.47
2022-11-07T11:13:33.100Z,118.40
2022-11-07T11:16:30.669Z,28.90
2022-11-07T11:19:00.203Z,60.03
2022-11-07T11:21:39.113Z,29.30
2022-11-07T11:24:35.578Z,21.80
2022-11-07T11:27:12.797Z,21.00
2022-11-07T11:29:43.069Z,14.02
2022-11-07T11:32:38.219Z,12.88
2022-11-07T11:35:08.772Z,13.85
2022-11-07T11:37:38.951Z,12.60
2022-11-07T11:40:11.136Z,14.55
2022-11-07T11:42:58.787Z,16.92
2022-11-07T11:45:32.242Z,15.82
2022-11-07T11:48:04.911Z,14.87
2022-11-07T11:50:38.873Z,12.88
2022-11-07T11:53:10.873Z,16.17
2022-11-07T11:55:51.105Z,15.43
2022-11-07T11:58:51.628Z,15.38
2022-11-07T12:01:44.407Z,15.35
2022-11-07T12:04:17.818Z,17.35
2022-11-07T12:06:46.218Z,14.68
2022-11-07T12:09:21.325Z,15.73
2022-11-07T12:11:57.097Z,16.05
2022-11-07T12:14:32.192Z,16.33
2022-11-07T12:19:47.406Z,10.35
2022-11-07T12:22:17.838Z,11.77
2022-11-07T12:25:09.909Z,9.05
2022-11-07T12:27:46.336Z,8.50
2022-11-07T12:30:37.490Z,6.80
2022-11-07T12:33:23.424Z,6.93
2022-11-07T12:36:04.796Z,7.75
2022-11-07T12:38:42.015Z,7.82
2022-11-07T12:41:20.284Z,8.02
2022-11-07T12:44:10.222Z,8.18
2022-11-07T12:46:46.376Z,12.40
2022-11-07T12:49:31.923Z,7.22
2022-11-07T12:52:22.277Z,7.32
2022-11-07T12:55:01.287Z,5.68
2022-11-07T12:57:34.141Z,5.00
2022-11-07T13:00:06.688Z,6.00
2022-11-07T13:02:46.234Z,6.78
2022-11-07T13:05:34.397Z,6.80
2022-11-07T13:08:09.962Z,13.07
2022-11-07T13:10:47.475Z,5.40
2022-11-07T13:13:21.986Z,5.45
2022-11-07T13:16:14.181Z,6.00
2022-11-07T13:18:36.935Z,4.65
2022-11-07T13:21:06.001Z,6.00
2022-11-07T13:23:33.542Z,4.68
2022-11-07T13:26:14.801Z,6.45
2022-11-07T13:28:59.094Z,6.10
2022-11-07T13:31:38.386Z,7.72
2022-11-07T13:34:24.805Z,5.55
2022-11-07T13:36:58.505Z,6.68
2022-11-07T13:39:25.843Z,4.90
2022-11-07T13:41:54.147Z,4.75
2022-11-07T13:44:31.686Z,5.15
2022-11-07T13:47:02.811Z,4.60
2022-11-07T13:49:44.562Z,8.35
2022-11-07T13:52:42.198Z,4.25
2022-11-07T13:55:29.052Z,9.05
2022-11-07T13:58:03.439Z,7.57
2022-11-07T14:00:32.034Z,8.23
2022-11-07T14:02:59.792Z,6.87
2022-11-07T14:05:29.552Z,4.55
2022-11-07T14:08:01.550Z,3.67
2022-11-07T14:10:47.135Z,4.03
2022-11-07T14:13:22.299Z,4.47
2022-11-07T14:15:53.937Z,4.65
2022-11-07T14:18:22.908Z,4.22
2022-11-07T14:20:53.475Z,3.97
2022-11-07T14:23:23.014Z,3.95
2022-11-07T14:26:19.339Z,4.97
2022-11-07T14:28:47.008Z,6.60
2022-11-07T14:31:21.437Z,6.82
2022-11-07T14:33:53.776Z,6.62
2022-11-07T14:36:21.972Z,5.12
2022-11-07T14:38:55.014Z,6.65
2022-11-07T14:41:22.851Z,6.20
2022-11-07T14:43:50.325Z,6.35
2022-11-07T14:46:24.815Z,8.18
2022-11-07T14:51:24.551Z,5.60
2022-11-07T14:54:09.443Z,5.47
2022-11-07T14:56:39.780Z,6.68
2022-11-07T14:59:11.805Z,6.05
2022-11-07T15:01:39.292Z,7.72
2022-11-07T15:04:31.142Z,12.27
2022-11-07T15:07:11.868Z,10.10
2022-11-07T15:09:40.842Z,9.98
2022-11-07T15:12:19.180Z,10.10
2022-11-07T15:14:59.544Z,9.30
2022-11-07T15:17:27.434Z,8.23
2022-11-07T15:20:06.985Z,11.65
2022-11-07T15:22:39.030Z,16.85
2022-11-07T15:25:37.098Z,14.95
2022-11-07T15:28:22.435Z,20.10
2022-11-07T15:30:51.222Z,14.32
2022-11-07T15:33:18.961Z,11.98
2022-11-07T15:35:47.994Z,11.35
2022-11-07T15:38:33.824Z,13.45
2022-11-07T15:41:01.208Z,13.90
2022-11-07T15:43:28.791Z,15.18
2022-11-07T15:45:56.423Z,13.68
2022-11-07T15:48:30.473Z,13.98
2022-11-07T15:50:58.093Z,16.90
2022-11-07T15:53:27.980Z,14.93
2022-11-07T15:55:58.628Z,10.23
2022-11-07T15:58:28.126Z,11.35
2022-11-07T16:00:56.401Z,11.85
2022-11-07T16:03:25.280Z,12.13
2022-11-07T16:05:54.959Z,10.40
2022-11-07T16:08:23.950Z,10.07
2022-11-07T16:10:54.752Z,9.95
2022-11-07T16:13:22.250Z,11.25
2022-11-07T16:15:52.333Z,9.88
2022-11-07T16:18:21.764Z,9.80
2022-11-07T16:20:49.935Z,10.30
2022-11-07T16:23:18.266Z,9.43
2022-11-07T16:25:47.742Z,9.73
2022-11-07T16:28:27.168Z,9.52
2022-11-07T16:30:56.193Z,10.75
2022-11-07T16:33:24.414Z,11.32
2022-11-07T16:35:54.640Z,10.85
2022-11-07T16:38:23.507Z,10.70
2022-11-07T16:40:51.701Z,10.52
2022-11-07T16:43:19.883Z,11.48
2022-11-07T16:45:52.404Z,28.25
2022-11-07T16:48:21.238Z,17.52
2022-11-07T16:50:49.804Z,10.80
2022-11-07T16:53:19.553Z,10.18
2022-11-07T16:55:53.245Z,10.45
2022-11-07T16:58:21.813Z,11.35
2022-11-07T17:00:49.828Z,12.52
2022-11-07T17:03:17.628Z,12.70
2022-11-07T17:05:46.189Z,15.80
2022-11-07T17:08:18.177Z,16.12
2022-11-07T17:10:50.104Z,16.25
2022-11-07T17:13:17.731Z,21.90
2022-11-07T17:15:45.375Z,18.77
2022-11-07T17:18:23.611Z,22.77
2022-11-07T17:20:53.396Z,23.60
2022-11-07T17:23:26.862Z,22.80
2022-11-07T17:26:00.358Z,19.87
2022-11-07T17:28:28.343Z,18.83
2022-11-07T17:30:55.772Z,22.40
2022-11-07T17:33:23.528Z,24.77
2022-11-07T17:35:57.392Z,30.37
2022-11-07T17:38:30.055Z,37.60
2022-11-07T17:41:17.475Z,36.03
2022-11-07T17:43:51.022Z,34.28
2022-11-07T17:46:21.966Z,36.00
2022-11-07T17:48:49.497Z,29.12
2022-11-07T17:51:17.405Z,49.22
2022-11-07T17:53:45.609Z,50.53
2022-11-07T17:56:17.339Z,55.05
2022-11-07T17:58:46.207Z,53.05
2022-11-07T18:01:16.197Z,60.90
2022-11-07T18:03:44.584Z,57.67
2022-11-07T18:06:12.940Z,47.62
2022-11-07T18:08:56.421Z,43.25
2022-11-07T18:11:29.751Z,45.22
2022-11-07T18:13:59.073Z,43.75
2022-11-07T18:16:30.831Z,31.58
2022-11-07T18:18:59.574Z,30.62
2022-11-07T18:21:27.969Z,32.28
2022-11-07T18:23:56.184Z,27.37
2022-11-07T18:26:30.747Z,36.88
2022-11-07T18:29:06.041Z,35.50
2022-11-07T18:31:34.343Z,43.75
2022-11-07T18:34:07.162Z,45.00
2022-11-07T18:36:38.580Z,42.78
2022-11-07T18:39:16.537Z,39.20
2022-11-07T18:41:45.097Z,34.65
2022-11-07T18:44:13.326Z,33.55
2022-11-07T18:46:41.488Z,30.42
2022-11-07T18:49:09.065Z,24.75
2022-11-07T18:51:37.195Z,26.60
2022-11-07T18:54:05.158Z,27.35
2022-11-07T18:56:33.675Z,24.58
2022-11-07T18:59:02.024Z,24.05
2022-11-07T19:01:33.349Z,23.70
2022-11-07T19:04:03.997Z,26.00
2022-11-07T19:06:32.681Z,20.62
2022-11-07T19:09:00.589Z,17.77
2022-11-07T19:11:30.759Z,18.60
2022-11-07T19:14:02.970Z,26.67
2022-11-07T19:16:31.303Z,24.40
2022-11-07T19:18:59.866Z,21.33
2022-11-07T19:21:27.838Z,21.08
2022-11-07T19:23:56.934Z,22.10
2022-11-07T19:26:25.635Z,21.87
2022-11-07T19:28:57.690Z,25.90
2022-11-07T19:31:34.503Z,27.33
2022-11-07T19:34:03.057Z,27.00
2022-11-07T19:36:31.646Z,23.00
2022-11-07T19:38:59.728Z,28.62
2022-11-07T19:41:27.659Z,22.00
2022-11-07T19:43:58.207Z,23.45
2022-11-07T19:46:26.122Z,22.77
2022-11-07T19:48:55.357Z,21.67
2022-11-07T19:51:24.167Z,21.35
2022-11-07T19:53:56.861Z,20.77
2022-11-07T19:56:27.296Z,22.42
2022-11-07T19:58:55.584Z,20.35
2022-11-07T20:01:25.888Z,21.85
2022-11-07T20:03:55.523Z,20.80
2022-11-07T20:06:26.840Z,19.35
2022-11-07T20:08:55.125Z,17.50
2022-11-07T20:11:25.184Z,17.37
2022-11-07T20:13:58.640Z,18.33
2022-11-07T20:16:30.324Z,18.87
2022-11-07T20:18:58.374Z,17.05
2022-11-07T20:21:29.039Z,17.42
2022-11-07T20:23:59.750Z,18.92
2022-11-07T20:26:29.818Z,18.92
2022-11-07T20:28:59.002Z,20.83
2022-11-07T20:31:33.664Z,24.40
2022-11-07T20:36:31.579Z,18.02
2022-11-07T20:39:00.977Z,15.32
2022-11-07T20:41:29.069Z,17.08
2022-11-07T20:44:03.663Z,17.00
2022-11-07T20:49:02.010Z,20.05
2022-11-07T20:51:29.971Z,15.70
2022-11-07T20:53:59.572Z,19.67
2022-11-07T20:56:28.581Z,18.33
2022-11-07T20:58:58.373Z,16.40
2022-11-07T21:01:38.070Z,17.17
2022-11-07T21:04:08.137Z,17.52
2022-11-07T21:06:37.820Z,21.40
2022-11-07T21:09:05.712Z,17.62
2022-11-07T21:11:33.384Z,23.35
2022-11-07T21:14:01.281Z,24.33
2022-11-07T21:16:28.861Z,24.75
2022-11-07T21:18:56.981Z,24.80
2022-11-07T21:21:27.591Z,23.83
2022-11-07T21:23:57.076Z,23.45
2022-11-07T21:26:32.099Z,25.60
2022-11-07T21:29:00.380Z,28.45
2022-11-07T21:31:31.919Z,25.65
2022-11-07T21:33:59.586Z,38.78
2022-11-07T21:36:28.853Z,51.33
2022-11-07T21:38:57.861Z,44.03
2022-11-07T21:41:25.534Z,29.52
2022-11-07T21:43:52.860Z,21.30
2022-11-07T21:46:25.898Z,24.35
2022-11-07T21:48:54.812Z,20.27
2022-11-07T21:51:27.768Z,20.45
2022-11-07T21:53:56.318Z,25.33
2022-11-07T21:56:28.832Z,20.80
2022-11-07T21:58:58.001Z,17.83
2022-11-07T22:01:26.384Z,23.77
2022-11-07T22:04:10.929Z,21.80
2022-11-07T22:06:40.779Z,17.67
2022-11-07T22:09:09.354Z,19.30
2022-11-07T22:11:36.850Z,20.95
2022-11-07T22:14:04.293Z,16.27
2022-11-07T22:16:32.274Z,17.17
2022-11-07T22:19:00.351Z,15.35
2022-11-07T22:21:27.721Z,20.12
2022-11-07T22:23:55.721Z,15.73
2022-11-07T22:26:25.265Z,18.95
2022-11-07T22:28:52.835Z,18.67
2022-11-07T22:31:26.349Z,16.60
2022-11-07T22:33:55.188Z,20.60
2022-11-07T22:36:23.714Z,19.45
2022-11-07T22:38:51.366Z,18.12
2022-11-07T22:41:23.317Z,16.77
2022-11-07T22:43:51.628Z,14.90
2022-11-07T22:46:21.312Z,16.85
2022-11-07T22:48:48.871Z,14.35
2022-11-07T22:51:17.921Z,17.23
2022-11-07T22:53:45.509Z,15.65
2022-11-07T22:56:18.029Z,13.00
2022-11-07T22:58:47.219Z,15.13
2022-11-07T23:01:17.435Z,14.18
2022-11-07T23:03:45.433Z,13.62
2022-11-07T23:06:13.297Z,12.68
2022-11-07T23:08:40.640Z,12.00
2022-11-07T23:14:02.737Z,10.82
2022-11-07T23:16:39.090Z,12.95
2022-11-07T23:19:09.065Z,14.85
2022-11-07T23:21:36.610Z,13.77
2022-11-07T23:24:04.672Z,15.85
2022-11-07T23:26:35.649Z,14.98
2022-11-07T23:29:11.429Z,14.82
2022-11-07T23:31:40.667Z,18.45
2022-11-07T23:34:08.834Z,15.32
2022-11-07T23:36:37.610Z,16.23
2022-11-07T23:39:07.944Z,17.55
2022-11-07T23:41:36.263Z,16.17
2022-11-07T23:44:04.734Z,14.45
2022-11-07T23:46:51.861Z,14.98
2022-11-07T23:49:38.616Z,15.00
2022-11-07T23:52:07.469Z,13.95
2022-11-07T23:54:54.014Z,15.80
2022-11-07T23:57:22.750Z,15.25
